createdAt,value
2023-01-21T00:00:12.359Z,7.60
2023-01-21T00:02:39.305Z,7.33
2023-01-21T00:05:08.511Z,7.27
2023-01-21T00:07:35.376Z,6.70
2023-01-21T00:10:02.322Z,7.80
2023-01-21T00:12:29.190Z,7.80
2023-01-21T00:14:56.252Z,7.57
2023-01-21T00:17:23.143Z,7.60
2023-01-21T00:19:50.028Z,7.67
2023-01-21T00:22:18.465Z,7.50
2023-01-21T00:24:45.357Z,7.93
2023-01-21T00:27:12.232Z,7.67
2023-01-21T00:29:39.074Z,8.47
2023-01-21T00:32:06.064Z,8.20
2023-01-21T00:34:33.049Z,8.03
2023-01-21T00:36:59.887Z,8.27
2023-01-21T00:39:28.091Z,8.57
2023-01-21T00:41:54.995Z,8.33
2023-01-21T00:44:21.827Z,8.93
2023-01-21T00:46:48.698Z,9.30
2023-01-21T00:49:15.544Z,9.10
2023-01-21T00:51:42.508Z,9.20
2023-01-21T00:54:09.496Z,10.17
2023-01-21T00:56:37.693Z,11.30
2023-01-21T00:59:04.608Z,10.70
2023-01-21T01:01:37.108Z,11.17
2023-01-21T01:04:05.442Z,10.17
2023-01-21T01:06:32.598Z,10.30
2023-01-21T01:08:59.915Z,10.20
2023-01-21T01:11:27.720Z,10.03
2023-01-21T01:13:56.318Z,9.97
2023-01-21T01:16:23.660Z,10.13
2023-01-21T01:18:52.577Z,10.00
2023-01-21T01:21:21.062Z,10.23
2023-01-21T01:23:48.866Z,9.37
2023-01-21T01:26:17.944Z,9.87
2023-01-21T01:28:45.004Z,9.43
2023-01-21T01:31:16.602Z,9.80
2023-01-21T01:33:43.927Z,8.40
2023-01-21T01:36:13.261Z,8.30
2023-01-21T01:38:40.137Z,8.77
2023-01-21T01:41:07.234Z,9.40
2023-01-21T01:43:53.127Z,8.53
2023-01-21T01:46:22.565Z,9.13
2023-01-21T01:48:52.950Z,8.60
2023-01-21T01:51:24.105Z,9.60
2023-01-21T01:53:52.703Z,9.47
2023-01-21T01:56:20.198Z,9.43
2023-01-21T01:58:48.200Z,9.37
2023-01-21T02:01:15.316Z,10.03
2023-01-21T02:03:50.692Z,9.57
2023-01-21T02:06:19.249Z,9.50
2023-01-21T02:08:47.622Z,9.90
2023-01-21T02:11:15.698Z,9.80
2023-01-21T02:13:44.605Z,9.20
2023-01-21T02:16:41.938Z,10.07
2023-01-21T02:19:42.381Z,9.40
2023-01-21T02:22:18.382Z,9.63
2023-01-21T02:25:20.141Z,9.87
2023-01-21T02:28:00.150Z,9.80
2023-01-21T02:30:46.579Z,9.53
2023-01-21T02:33:31.852Z,10.10
2023-01-21T02:36:08.564Z,10.17
2023-01-21T02:38:44.979Z,9.77
2023-01-21T02:41:19.773Z,10.10
2023-01-21T02:43:53.764Z,9.63
2023-01-21T02:46:28.768Z,9.60
2023-01-21T02:49:00.308Z,9.00
2023-01-21T02:51:27.201Z,8.50
2023-01-21T02:53:54.082Z,8.87
2023-01-21T02:56:24.789Z,7.67
2023-01-21T02:58:56.064Z,6.80
2023-01-21T03:01:33.546Z,6.10
2023-01-21T03:04:33.116Z,5.40
2023-01-21T03:07:08.087Z,5.27
2023-01-21T03:09:36.122Z,6.17
2023-01-21T03:12:13.430Z,6.00
2023-01-21T03:15:08.320Z,5.63
2023-01-21T03:17:41.471Z,6.13
2023-01-21T03:20:13.768Z,5.90
2023-01-21T03:22:41.406Z,6.40
2023-01-21T03:25:11.701Z,7.40
2023-01-21T03:27:42.749Z,7.27
2023-01-21T03:30:14.213Z,7.10
2023-01-21T03:32:43.363Z,7.43
2023-01-21T03:35:14.470Z,7.33
2023-01-21T03:37:46.880Z,7.70
2023-01-21T03:40:21.512Z,7.60
2023-01-21T03:42:56.247Z,8.03
2023-01-21T03:45:36.631Z,8.43
2023-01-21T03:48:13.436Z,8.63
2023-01-21T03:50:47.570Z,9.20
2023-01-21T03:53:14.560Z,8.73
2023-01-21T03:55:41.425Z,8.83
2023-01-21T03:58:08.347Z,8.53
2023-01-21T04:00:35.222Z,8.30
2023-01-21T04:03:02.082Z,8.63
2023-01-21T04:05:28.923Z,8.20
2023-01-21T04:07:57.149Z,8.77
2023-01-21T04:10:24.078Z,8.10
2023-01-21T04:12:51.032Z,8.50
2023-01-21T04:15:17.892Z,8.77
2023-01-21T04:17:44.780Z,8.13
2023-01-21T04:20:12.769Z,8.17
2023-01-21T04:22:39.696Z,8.27
2023-01-21T04:25:08.471Z,8.13
2023-01-21T04:27:35.400Z,8.93
2023-01-21T04:30:02.320Z,8.93
2023-01-21T04:32:29.169Z,9.70
2023-01-21T04:34:56.102Z,9.10
2023-01-21T04:37:23.025Z,8.47
2023-01-21T04:39:49.927Z,8.30
2023-01-21T04:42:18.158Z,7.80
2023-01-21T04:44:45.162Z,7.97
2023-01-21T04:47:11.998Z,8.20
2023-01-21T04:49:38.855Z,8.37
2023-01-21T04:52:06.273Z,7.40
2023-01-21T04:54:33.192Z,8.07
2023-01-21T04:57:00.105Z,7.77
2023-01-21T04:59:28.286Z,7.77
2023-01-21T05:01:55.185Z,7.77
2023-01-21T05:04:22.070Z,7.50
2023-01-21T05:06:48.978Z,7.67
2023-01-21T05:09:15.907Z,7.40
2023-01-21T05:11:42.855Z,7.97
2023-01-21T05:14:09.786Z,7.10
2023-01-21T05:16:38.052Z,6.97
2023-01-21T05:19:04.958Z,7.70
2023-01-21T05:21:31.860Z,7.80
2023-01-21T05:23:58.734Z,7.30
2023-01-21T05:26:25.575Z,7.20
2023-01-21T05:28:52.440Z,7.10
2023-01-21T05:31:19.453Z,7.23
2023-01-21T05:33:48.002Z,7.17
2023-01-21T05:36:14.887Z,7.03
2023-01-21T05:38:41.750Z,7.27
2023-01-21T05:41:08.710Z,7.47
2023-01-21T05:43:35.775Z,7.10
2023-01-21T05:46:02.686Z,6.67
2023-01-21T05:48:29.698Z,6.60
2023-01-21T05:50:58.488Z,6.60
2023-01-21T05:53:25.926Z,6.20
2023-01-21T05:55:53.283Z,6.37
2023-01-21T05:58:20.934Z,6.27
2023-01-21T06:00:48.545Z,6.17
2023-01-21T06:03:16.346Z,6.27
2023-01-21T06:05:43.704Z,6.47
2023-01-21T06:08:13.282Z,6.37
2023-01-21T06:10:40.231Z,6.60
2023-01-21T06:13:07.221Z,6.33
2023-01-21T06:15:34.255Z,6.73
2023-01-21T06:18:01.457Z,6.37
2023-01-21T06:20:31.589Z,6.80
2023-01-21T06:22:58.931Z,6.60
2023-01-21T06:25:27.285Z,6.60
2023-01-21T06:27:54.914Z,6.67
2023-01-21T06:30:22.674Z,5.90
2023-01-21T06:32:49.852Z,6.47
2023-01-21T06:35:17.271Z,7.10
2023-01-21T06:37:45.161Z,7.30
2023-01-21T06:40:15.179Z,6.60
2023-01-21T06:42:45.851Z,8.77
2023-01-21T06:45:12.927Z,8.53
2023-01-21T06:47:41.135Z,8.67
2023-01-21T06:50:09.735Z,8.70
2023-01-21T06:52:36.602Z,9.67
2023-01-21T06:55:04.064Z,10.87
2023-01-21T06:57:30.930Z,10.80
2023-01-21T06:59:59.170Z,10.80
2023-01-21T07:02:26.860Z,10.37
2023-01-21T07:04:54.166Z,11.13
2023-01-21T07:07:21.008Z,11.83
2023-01-21T07:09:47.870Z,10.60
2023-01-21T07:12:14.937Z,11.27
2023-01-21T07:14:42.024Z,11.07
2023-01-21T07:17:10.392Z,10.97
2023-01-21T07:19:37.338Z,11.57
2023-01-21T07:22:04.339Z,13.43
2023-01-21T07:24:31.265Z,11.93
2023-01-21T07:26:58.310Z,12.17
2023-01-21T07:29:25.380Z,12.60
2023-01-21T07:31:52.282Z,12.37
2023-01-21T07:34:20.501Z,13.03
2023-01-21T07:36:47.361Z,13.30
2023-01-21T07:39:14.269Z,12.63
2023-01-21T07:41:41.152Z,13.87
2023-01-21T07:44:11.887Z,12.20
2023-01-21T07:46:38.742Z,13.90
2023-01-21T07:49:05.679Z,13.93
2023-01-21T07:51:33.871Z,12.97
2023-01-21T07:54:00.733Z,12.07
2023-01-21T07:56:27.634Z,11.33
2023-01-21T07:58:54.935Z,10.80
2023-01-21T08:01:24.516Z,11.47
2023-01-21T08:03:52.315Z,10.87
2023-01-21T08:06:19.214Z,11.50
2023-01-21T08:08:47.596Z,11.97
2023-01-21T08:11:14.548Z,12.37
2023-01-21T08:13:41.496Z,13.10
2023-01-21T08:16:11.622Z,13.43
2023-01-21T08:18:38.535Z,13.17
2023-01-21T08:21:05.633Z,13.47
2023-01-21T08:23:32.572Z,13.33
2023-01-21T08:26:04.413Z,13.90
2023-01-21T08:28:31.383Z,13.60
2023-01-21T08:31:03.695Z,14.03
2023-01-21T08:33:30.815Z,14.00
2023-01-21T08:36:00.003Z,13.67
2023-01-21T08:38:27.200Z,13.53
2023-01-21T08:40:54.114Z,13.67
2023-01-21T08:43:22.380Z,13.97
2023-01-21T08:45:49.411Z,12.73
2023-01-21T08:48:16.755Z,13.27
2023-01-21T08:50:43.632Z,13.50
2023-01-21T08:53:11.074Z,14.37
2023-01-21T08:55:37.982Z,14.30
2023-01-21T08:58:04.817Z,13.43
2023-01-21T09:00:33.119Z,14.27
2023-01-21T09:03:00.058Z,14.77
2023-01-21T09:05:27.699Z,15.30
2023-01-21T09:07:56.161Z,15.33
2023-01-21T09:10:42.849Z,15.57
2023-01-21T09:13:10.828Z,15.50
2023-01-21T09:15:40.231Z,16.00
2023-01-21T09:18:07.332Z,16.73
2023-01-21T09:20:34.520Z,15.90
2023-01-21T09:23:01.413Z,17.20
2023-01-21T09:25:28.338Z,16.40
2023-01-21T09:27:55.270Z,16.70
2023-01-21T09:30:22.149Z,17.10
2023-01-21T09:32:50.849Z,16.87
2023-01-21T09:35:18.047Z,16.27
2023-01-21T09:37:45.761Z,16.63
2023-01-21T09:40:16.621Z,15.70
2023-01-21T09:42:43.689Z,16.00
2023-01-21T09:45:13.471Z,16.10
2023-01-21T09:47:43.531Z,15.80
2023-01-21T09:50:16.640Z,16.43
2023-01-21T09:52:45.072Z,14.60
2023-01-21T09:55:16.504Z,15.33
2023-01-21T09:58:05.106Z,14.63
2023-01-21T10:00:36.760Z,13.97
2023-01-21T10:03:16.966Z,15.37
2023-01-21T10:06:13.287Z,14.63
2023-01-21T10:08:57.063Z,15.17
2023-01-21T10:11:41.519Z,14.10
2023-01-21T10:14:24.424Z,14.37
2023-01-21T10:17:00.823Z,15.60
2023-01-21T10:19:35.239Z,14.13
2023-01-21T10:22:09.910Z,14.57
2023-01-21T10:24:42.027Z,12.90
2023-01-21T10:27:14.941Z,12.50
2023-01-21T10:29:42.004Z,12.73
2023-01-21T10:32:14.925Z,13.17
2023-01-21T10:34:49.857Z,13.07
2023-01-21T10:37:30.533Z,12.97
2023-01-21T10:40:04.210Z,12.07
2023-01-21T10:42:49.821Z,11.10
2023-01-21T10:45:27.478Z,11.97
2023-01-21T10:48:00.691Z,11.70
2023-01-21T10:50:37.908Z,12.83
2023-01-21T10:53:18.285Z,13.37
2023-01-21T10:56:09.460Z,13.57
2023-01-21T10:58:41.269Z,13.27
2023-01-21T11:01:16.910Z,12.90
2023-01-21T11:03:46.165Z,15.37
2023-01-21T11:06:16.531Z,14.40
2023-01-21T11:08:48.006Z,14.00
2023-01-21T11:11:19.822Z,13.80
2023-01-21T11:13:46.761Z,13.30
2023-01-21T11:16:13.793Z,13.43
2023-01-21T11:18:42.301Z,13.30
2023-01-21T11:21:17.471Z,13.70
2023-01-21T11:23:53.179Z,12.47
2023-01-21T11:26:23.590Z,12.33
2023-01-21T11:29:07.241Z,13.63
2023-01-21T11:31:35.376Z,12.97
2023-01-21T11:34:06.927Z,12.80
2023-01-21T11:36:34.511Z,12.53
2023-01-21T11:39:04.821Z,14.03
2023-01-21T11:41:32.248Z,12.63
2023-01-21T11:44:10.111Z,13.23
2023-01-21T11:46:38.207Z,13.23
2023-01-21T11:49:23.933Z,13.00
2023-01-21T11:51:51.311Z,13.63
2023-01-21T11:54:21.050Z,13.17
2023-01-21T11:56:56.718Z,13.70
2023-01-21T11:59:28.095Z,12.77
2023-01-21T12:01:59.985Z,13.33
2023-01-21T12:04:27.050Z,12.47
2023-01-21T12:06:58.111Z,13.60
2023-01-21T12:09:27.831Z,12.03
2023-01-21T12:12:15.837Z,13.10
2023-01-21T12:14:51.143Z,12.20
2023-01-21T12:17:30.371Z,13.03
2023-01-21T12:20:12.199Z,12.77
2023-01-21T12:22:52.354Z,13.13
2023-01-21T12:25:38.181Z,12.17
2023-01-21T12:28:22.752Z,12.37
2023-01-21T12:30:58.869Z,12.07
2023-01-21T12:33:40.031Z,12.20
2023-01-21T12:36:13.602Z,11.73
2023-01-21T12:38:46.527Z,12.73
2023-01-21T12:41:18.678Z,12.03
2023-01-21T12:43:47.950Z,11.90
2023-01-21T12:46:20.606Z,11.60
2023-01-21T12:48:51.809Z,11.33
2023-01-21T12:51:24.805Z,10.70
2023-01-21T12:53:56.885Z,11.67
2023-01-21T12:56:34.670Z,11.33
2023-01-21T12:59:10.914Z,10.80
2023-01-21T13:01:48.515Z,11.60
2023-01-21T13:04:40.125Z,11.13
2023-01-21T13:07:18.638Z,10.13
2023-01-21T13:09:53.278Z,11.30
2023-01-21T13:12:24.167Z,11.57
2023-01-21T13:14:55.348Z,10.87
2023-01-21T13:17:27.843Z,10.80
2023-01-21T13:19:54.855Z,11.33
2023-01-21T13:22:34.562Z,10.17
2023-01-21T13:25:08.625Z,9.93
2023-01-21T13:27:44.577Z,12.13
2023-01-21T13:30:23.704Z,10.80
2023-01-21T13:32:59.749Z,11.10
2023-01-21T13:35:36.753Z,11.03
2023-01-21T13:38:13.416Z,11.53
2023-01-21T13:40:47.553Z,10.50
2023-01-21T13:43:33.041Z,10.87
2023-01-21T13:46:15.709Z,9.93
2023-01-21T13:49:02.719Z,10.43
2023-01-21T13:51:41.695Z,11.50
2023-01-21T13:54:30.031Z,11.10
2023-01-21T13:57:10.385Z,10.97
2023-01-21T13:59:43.658Z,11.03
2023-01-21T14:02:16.780Z,11.20
2023-01-21T14:04:50.235Z,11.03
2023-01-21T14:07:22.630Z,10.63
2023-01-21T14:09:55.771Z,11.20
2023-01-21T14:12:34.169Z,11.30
2023-01-21T14:15:18.819Z,10.97
2023-01-21T14:18:03.226Z,10.80
2023-01-21T14:20:49.043Z,10.47
2023-01-21T14:23:40.195Z,9.70
2023-01-21T14:26:31.538Z,11.07
2023-01-21T14:29:09.612Z,10.50
2023-01-21T14:31:42.275Z,10.30
2023-01-21T14:34:16.162Z,9.97
2023-01-21T14:36:51.297Z,10.33
2023-01-21T14:39:40.970Z,11.00
2023-01-21T14:42:10.141Z,9.80
2023-01-21T14:44:42.409Z,9.70
2023-01-21T14:47:19.050Z,10.07
2023-01-21T14:49:56.230Z,10.10
2023-01-21T14:52:29.127Z,9.87
2023-01-21T14:54:56.477Z,9.90
2023-01-21T14:57:27.993Z,10.10
2023-01-21T15:00:05.615Z,9.97
2023-01-21T15:02:34.605Z,9.20
2023-01-21T15:05:16.256Z,10.37
2023-01-21T15:07:45.808Z,10.03
2023-01-21T15:10:18.538Z,10.60
2023-01-21T15:12:53.732Z,9.83
2023-01-21T15:15:28.906Z,10.60
2023-01-21T15:18:28.227Z,9.70
2023-01-21T15:21:00.649Z,11.27
2023-01-21T15:23:38.009Z,9.53
2023-01-21T15:26:19.105Z,10.53
2023-01-21T15:28:47.467Z,10.40
2023-01-21T15:31:42.028Z,10.60
2023-01-21T15:34:14.884Z,11.10
2023-01-21T15:36:48.081Z,10.40
2023-01-21T15:39:17.588Z,10.00
2023-01-21T15:42:02.612Z,10.00
2023-01-21T15:44:47.449Z,10.40
2023-01-21T15:47:49.630Z,10.00
2023-01-21T15:50:21.687Z,9.67
2023-01-21T15:53:05.630Z,9.27
2023-01-21T15:55:49.761Z,9.80
2023-01-21T15:58:24.952Z,10.33
2023-01-21T16:01:01.201Z,9.40
2023-01-21T16:03:32.838Z,9.73
2023-01-21T16:06:05.362Z,9.47
2023-01-21T16:08:47.250Z,9.00
2023-01-21T16:11:31.954Z,8.77
2023-01-21T16:14:13.900Z,9.47
2023-01-21T16:16:57.086Z,8.77
2023-01-21T16:19:28.276Z,8.57
2023-01-21T16:21:58.817Z,9.60
2023-01-21T16:24:29.622Z,9.70
2023-01-21T16:27:15.537Z,8.53
2023-01-21T16:29:42.446Z,8.80
2023-01-21T16:32:16.714Z,9.37
2023-01-21T16:34:44.114Z,8.53
2023-01-21T16:37:12.916Z,9.37
2023-01-21T16:39:42.086Z,8.67
2023-01-21T16:42:23.539Z,8.80
2023-01-21T16:44:50.962Z,8.23
2023-01-21T16:47:23.432Z,9.00
2023-01-21T16:49:50.666Z,8.53
2023-01-21T16:52:24.304Z,9.37
2023-01-21T16:54:54.102Z,9.20
2023-01-21T16:57:25.752Z,8.37
2023-01-21T16:59:55.767Z,8.80
2023-01-21T17:02:25.645Z,8.93
2023-01-21T17:04:55.960Z,8.67
2023-01-21T17:07:26.460Z,8.70
2023-01-21T17:09:59.420Z,8.17
2023-01-21T17:12:28.503Z,8.83
2023-01-21T17:14:57.576Z,8.47
2023-01-21T17:17:25.913Z,7.93
2023-01-21T17:19:52.957Z,7.83
2023-01-21T17:22:22.274Z,8.33
2023-01-21T17:25:02.408Z,8.97
2023-01-21T17:27:30.221Z,8.10
2023-01-21T17:30:32.924Z,8.07
2023-01-21T17:33:01.470Z,8.00
2023-01-21T17:35:29.459Z,9.33
2023-01-21T17:37:58.304Z,8.47
2023-01-21T17:40:30.193Z,8.73
2023-01-21T17:42:58.544Z,7.27
2023-01-21T17:45:32.983Z,7.73
2023-01-21T17:48:11.720Z,8.33
2023-01-21T17:50:46.302Z,7.37
2023-01-21T17:53:20.331Z,7.80
2023-01-21T17:56:01.127Z,7.80
2023-01-21T17:58:49.045Z,7.63
2023-01-21T18:01:16.736Z,7.27
2023-01-21T18:03:43.751Z,7.87
2023-01-21T18:06:17.018Z,7.50
2023-01-21T18:08:43.961Z,7.57
2023-01-21T18:11:14.825Z,7.77
2023-01-21T18:13:41.736Z,7.93
2023-01-21T18:16:08.882Z,8.20
2023-01-21T18:18:35.906Z,8.00
2023-01-21T18:21:02.971Z,8.70
2023-01-21T18:23:30.631Z,7.70
2023-01-21T18:25:58.289Z,7.97
2023-01-21T18:28:28.641Z,8.10
2023-01-21T18:30:57.253Z,8.43
2023-01-21T18:33:25.077Z,7.87
2023-01-21T18:35:52.890Z,8.90
2023-01-21T18:38:26.865Z,8.20
2023-01-21T18:40:54.404Z,8.30
2023-01-21T18:43:21.437Z,8.20
2023-01-21T18:45:49.683Z,8.80
2023-01-21T18:48:18.466Z,8.73
2023-01-21T18:50:45.510Z,9.27
2023-01-21T18:53:13.086Z,8.23
2023-01-21T18:55:43.907Z,8.87
2023-01-21T18:58:13.685Z,9.17
2023-01-21T19:00:41.778Z,8.93
2023-01-21T19:03:13.538Z,9.23
2023-01-21T19:05:42.289Z,10.10
2023-01-21T19:08:12.285Z,9.00
2023-01-21T19:10:39.241Z,10.73
2023-01-21T19:13:06.082Z,9.53
2023-01-21T19:15:32.970Z,9.80
2023-01-21T19:17:59.861Z,9.37
2023-01-21T19:20:29.502Z,9.60
2023-01-21T19:22:56.810Z,10.30
2023-01-21T19:25:25.970Z,10.17
2023-01-21T19:27:55.651Z,9.57
2023-01-21T19:30:24.436Z,9.60
2023-01-21T19:32:53.135Z,10.03
2023-01-21T19:35:22.908Z,10.50
2023-01-21T19:37:51.244Z,10.23
2023-01-21T19:41:14.104Z,10.97
2023-01-21T19:43:41.994Z,10.70
2023-01-21T19:46:11.555Z,10.00
2023-01-21T19:48:38.878Z,10.63
2023-01-21T19:51:06.523Z,11.30
2023-01-21T19:53:34.773Z,10.30
2023-01-21T19:56:02.959Z,10.50
2023-01-21T19:58:31.288Z,10.27
2023-01-21T20:00:58.208Z,10.77
2023-01-21T20:03:26.482Z,10.87
2023-01-21T20:05:57.768Z,10.90
2023-01-21T20:08:27.556Z,11.07
2023-01-21T20:10:55.970Z,11.67
2023-01-21T20:13:22.904Z,11.93
2023-01-21T20:15:51.710Z,12.00
2023-01-21T20:18:21.480Z,11.97
2023-01-21T20:20:48.513Z,11.60
2023-01-21T20:23:16.539Z,11.50
2023-01-21T20:25:45.332Z,12.37
2023-01-21T20:28:18.522Z,11.23
2023-01-21T20:30:45.785Z,10.83
2023-01-21T20:33:16.019Z,11.13
2023-01-21T20:35:44.143Z,11.20
2023-01-21T20:38:13.771Z,11.73
2023-01-21T20:40:40.967Z,11.23
2023-01-21T20:43:09.459Z,10.90
2023-01-21T20:45:42.069Z,11.10
2023-01-21T20:48:18.162Z,11.20
2023-01-21T20:50:45.151Z,11.60
2023-01-21T20:53:12.997Z,11.00
2023-01-21T20:55:40.731Z,11.93
2023-01-21T20:58:07.623Z,11.37
2023-01-21T21:00:37.112Z,11.50
2023-01-21T21:03:04.042Z,11.47
2023-01-21T21:05:31.385Z,11.63
2023-01-21T21:07:58.616Z,11.67
2023-01-21T21:10:31.358Z,11.97
2023-01-21T21:13:01.364Z,11.27
2023-01-21T21:15:29.551Z,12.07
2023-01-21T21:17:58.691Z,11.23
2023-01-21T21:20:27.605Z,11.87
2023-01-21T21:22:54.765Z,11.30
2023-01-21T21:25:23.624Z,10.60
2023-01-21T21:27:50.567Z,11.60
2023-01-21T21:30:18.914Z,10.70
2023-01-21T21:32:45.827Z,11.27
2023-01-21T21:35:22.065Z,11.40
2023-01-21T21:37:49.015Z,11.37
2023-01-21T21:40:16.157Z,10.57
2023-01-21T21:43:01.810Z,10.90
2023-01-21T21:45:28.951Z,11.07
2023-01-21T21:48:14.399Z,10.20
2023-01-21T21:50:42.833Z,10.53
2023-01-21T21:53:09.751Z,10.47
2023-01-21T21:55:36.617Z,9.93
2023-01-21T21:58:03.927Z,9.43
2023-01-21T22:00:30.880Z,10.83
2023-01-21T22:02:59.817Z,10.33
2023-01-21T22:05:26.773Z,11.30
2023-01-21T22:07:55.207Z,11.07
2023-01-21T22:10:22.069Z,10.63
2023-01-21T22:13:02.294Z,11.73
2023-01-21T22:15:29.156Z,11.20
2023-01-21T22:17:55.996Z,10.83
2023-01-21T22:20:22.888Z,11.50
2023-01-21T22:22:49.734Z,11.20
2023-01-21T22:25:18.361Z,10.70
2023-01-21T22:27:45.911Z,10.40
2023-01-21T22:30:13.843Z,10.53
2023-01-21T22:32:40.676Z,10.33
2023-01-21T22:35:08.172Z,10.13
2023-01-21T22:37:35.021Z,10.53
2023-01-21T22:40:01.864Z,9.47
2023-01-21T22:42:30.037Z,9.30
2023-01-21T22:44:56.866Z,10.80
2023-01-21T22:47:23.753Z,11.07
2023-01-21T22:49:50.617Z,10.30
2023-01-21T22:52:17.526Z,10.80
2023-01-21T22:54:44.321Z,10.20
2023-01-21T22:57:11.145Z,10.30
2023-01-21T22:59:39.837Z,10.67
2023-01-21T23:02:06.731Z,9.33
2023-01-21T23:04:33.682Z,9.33
2023-01-21T23:07:00.659Z,9.27
2023-01-21T23:09:27.548Z,9.77
2023-01-21T23:11:54.500Z,9.40
2023-01-21T23:14:21.380Z,9.13
2023-01-21T23:16:52.366Z,8.43
2023-01-21T23:19:19.757Z,8.70
2023-01-21T23:21:46.606Z,9.30
2023-01-21T23:24:13.532Z,8.97
2023-01-21T23:26:40.399Z,8.50
2023-01-21T23:29:07.321Z,8.67
2023-01-21T23:31:35.240Z,8.87
2023-01-21T23:34:03.620Z,8.33
2023-01-21T23:36:30.472Z,7.77
2023-01-21T23:38:57.372Z,8.57
2023-01-21T23:41:24.262Z,8.10
2023-01-21T23:43:51.087Z,8.27
2023-01-21T23:46:19.718Z,7.83
2023-01-21T23:48:47.368Z,7.90
2023-01-21T23:51:16.795Z,8.33
2023-01-21T23:53:43.731Z,8.57
2023-01-21T23:56:13.105Z,7.97
2023-01-21T23:58:40.335Z,8.57
